Time;durP1;ratioP1;P1;durP2;ratioP2;P2;SDS_P1;SDS_P2;PMS_P1;PMS_P2;Temp;Humidity;BMP_temperature;BMP_pressure;BME280_temperature;BME280_humidity;BME280_pressure;Samples;Min_cycle;Max_cycle;Signal;HPM_P1;HPM_P2
2022/11/08 00:01:55;;;;;;;7.88;2.65;;;;;;;10.91;94.80;100880.84;4930283;29;20472;-82
2022/11/08 00:04:21;;;;;;;5.03;2.95;;;;;;;10.92;95.08;100884.44;4913617;29;20040;-83
2022/11/08 00:14:59;;;;;;;8.35;2.50;;;;;;;10.75;94.89;100873.91;4945233;29;20071;-83
2022/11/08 00:17:27;;;;;;;7.43;2.13;;;;;;;10.71;95.04;100875.97;4927519;29;20075;-82
2022/11/08 00:19:53;;;;;;;8.80;2.42;;;;;;;10.69;95.73;100867.06;4945188;29;20465;-83
2022/11/08 00:22:19;;;;;;;9.10;2.63;;;;;;;10.66;95.39;100872.72;4930291;29;20050;-83
2022/11/08 00:24:45;;;;;;;8.52;2.65;;;;;;;10.66;96.23;100870.00;4943412;29;20088;-83
2022/11/08 00:27:19;;;;;;;5.60;2.22;;;;;;;10.65;96.06;100860.97;4923139;29;20504;-82
2022/11/08 00:29:44;;;;;;;9.75;2.60;;;;;;;10.66;96.21;100872.72;4942945;29;20037;-83
2022/11/08 00:32:16;;;;;;;10.55;2.10;;;;;;;10.61;95.82;100870.34;4932820;29;20039;-83
2022/11/08 00:34:43;;;;;;;8.33;3.13;;;;;;;10.59;95.82;100869.59;4933877;29;20039;-83
2022/11/08 00:37:08;;;;;;;9.45;2.85;;;;;;;10.56;96.09;100868.94;4944860;29;20611;-82
2022/11/08 00:39:35;;;;;;;2.88;1.90;;;;;;;10.50;95.65;100870.25;4916172;29;20127;-83
2022/11/08 00:42:00;;;;;;;9.85;2.67;;;;;;;10.45;96.08;100869.72;4914528;29;20088;-82
2022/11/08 00:44:26;;;;;;;7.38;2.45;;;;;;;10.43;97.10;100852.63;4918372;29;20063;-83
2022/11/08 00:46:51;;;;;;;8.75;2.10;;;;;;;10.38;96.36;100860.25;4933573;29;20526;-83
2022/11/08 00:49:17;;;;;;;10.43;2.55;;;;;;;10.32;97.20;100857.97;4916489;29;20042;-83
2022/11/08 00:51:42;;;;;;;7.30;2.60;;;;;;;10.32;96.54;100853.41;4915910;29;20087;-83
2022/11/08 00:54:12;;;;;;;5.88;2.20;;;;;;;10.29;96.62;100848.16;4930910;29;20048;-82
2022/11/08 00:56:37;;;;;;;6.38;2.35;;;;;;;10.25;97.52;100845.78;4902216;29;20123;-83
2022/11/08 00:59:03;;;;;;;8.07;2.45;;;;;;;10.28;97.10;100853.72;4914537;29;20187;-82
2022/11/08 01:01:28;;;;;;;8.32;2.33;;;;;;;10.28;97.73;100851.00;4897573;29;20071;-83
2022/11/08 01:03:53;;;;;;;10.27;2.63;;;;;;;10.24;97.77;100853.06;4899487;29;20031;-83
2022/11/08 01:06:21;;;;;;;4.15;2.10;;;;;;;10.20;97.71;100846.94;4915159;29;20566;-83
2022/11/08 01:08:48;;;;;;;7.88;2.50;;;;;;;10.19;97.41;100831.59;4929159;29;20126;-83
2022/11/08 01:11:17;;;;;;;8.88;2.70;;;;;;;10.15;97.32;100851.81;4929809;29;20430;-82
2022/11/08 01:13:43;;;;;;;7.30;2.22;;;;;;;10.06;97.52;100843.44;4933061;29;20050;-82
2022/11/08 01:16:11;;;;;;;11.00;2.88;;;;;;;10.05;98.55;100833.56;4932166;29;20023;-82
2022/11/08 01:18:37;;;;;;;5.63;2.55;;;;;;;10.02;98.45;100834.63;4930696;29;20051;-82
2022/11/08 01:21:03;;;;;;;8.05;2.63;;;;;;;10.09;98.57;100843.25;4915543;29;20036;-83
2022/11/08 01:23:29;;;;;;;6.35;2.58;;;;;;;10.09;99.04;100844.13;4915188;29;20047;-83
2022/11/08 01:25:55;;;;;;;6.57;2.17;;;;;;;10.09;98.79;100829.66;4932833;29;20039;-82
2022/11/08 01:28:20;;;;;;;8.13;2.50;;;;;;;10.08;98.50;100826.06;4947970;29;20286;-83
2022/11/08 01:30:46;;;;;;;4.78;2.40;;;;;;;10.06;99.27;100832.59;4933237;29;20039;-83
2022/11/08 01:33:12;;;;;;;11.27;2.80;;;;;;;10.03;98.78;100824.66;4931096;29;20397;-82
2022/11/08 01:35:38;;;;;;;9.15;3.10;;;;;;;10.05;98.99;100829.00;4916011;29;20036;-83
2022/11/08 01:38:05;;;;;;;8.23;2.92;;;;;;;10.01;99.13;100816.59;4931680;29;20383;-83
2022/11/08 01:40:31;;;;;;;10.68;3.00;;;;;;;10.04;99.39;100820.97;4928548;29;20036;-83
2022/11/08 01:42:57;;;;;;;6.35;2.70;;;;;;;10.03;99.10;100820.09;4930772;29;20031;-83
2022/11/08 01:46:00;;;;;;;6.30;2.25;;;;;;;10.01;98.80;100819.31;4919885;29;20084;-83
2022/11/08 01:48:27;;;;;;;6.20;2.42;;;;;;;9.95;98.47;100812.47;4917928;29;20048;-83
2022/11/08 01:50:56;;;;;;;12.27;3.58;;;;;;;9.94;99.04;100796.28;4915211;29;20043;-83
2022/11/08 01:53:22;;;;;;;8.05;3.13;;;;;;;9.98;99.57;100795.09;4933951;29;20344;-83
2022/11/08 01:55:48;;;;;;;7.57;3.00;;;;;;;9.99;99.55;100788.66;4929667;29;20424;-83
2022/11/08 01:58:18;;;;;;;10.68;3.28;;;;;;;9.99;99.83;100785.94;4928157;29;20048;-83
2022/11/08 02:00:43;;;;;;;10.18;3.35;;;;;;;10.00;99.48;100792.25;4930776;29;20459;-83
2022/11/08 02:03:12;;;;;;;7.10;2.90;;;;;;;9.98;99.71;100789.66;4932448;29;20035;-82
2022/11/08 02:05:38;;;;;;;7.88;2.83;;;;;;;10.01;100.00;100780.41;4928355;28;20043;-82
2022/11/08 02:08:13;;;;;;;12.23;3.00;;;;;;;9.96;99.50;100773.44;4912868;29;20388;-83
2022/11/08 02:10:45;;;;;;;10.30;2.75;;;;;;;9.94;99.13;100771.81;4912162;29;20395;-82
2022/11/08 02:13:17;;;;;;;5.43;2.30;;;;;;;9.93;99.80;100767.34;4915391;29;20514;-83
2022/11/08 02:15:42;;;;;;;7.93;2.43;;;;;;;9.94;99.79;100759.09;4927676;29;20452;-82
2022/11/08 02:18:09;;;;;;;14.32;2.90;;;;;;;9.96;99.75;100754.41;4911663;29;20323;-83
2022/11/08 02:20:35;;;;;;;5.00;2.33;;;;;;;10.03;100.00;100759.44;4911104;29;20107;-82
2022/11/08 02:23:18;;;;;;;10.15;2.33;;;;;;;10.05;100.00;100758.31;4911866;29;20114;-83
2022/11/08 02:25:44;;;;;;;6.22;2.22;;;;;;;10.04;99.84;100748.44;4925016;29;20063;-83
2022/11/08 02:28:09;;;;;;;6.32;2.40;;;;;;;10.06;99.87;100742.88;4912229;29;20028;-82
2022/11/08 02:30:36;;;;;;;8.13;2.50;;;;;;;10.06;99.42;100738.31;4927162;29;20036;-82
2022/11/08 02:33:19;;;;;;;7.78;2.15;;;;;;;10.09;99.41;100739.97;4928462;29;20028;-84
2022/11/08 02:35:49;;;;;;;7.78;2.55;;;;;;;10.07;99.75;100737.34;4927578;29;20039;-83
2022/11/08 02:38:15;;;;;;;8.35;2.75;;;;;;;10.05;99.58;100724.84;4930108;29;20437;-83
2022/11/08 02:40:55;;;;;;;6.38;2.40;;;;;;;10.08;99.29;100733.66;4910324;29;20135;-83
2022/11/08 02:43:22;;;;;;;11.40;2.50;;;;;;;10.08;99.56;100730.06;4930779;29;20047;-83
2022/11/08 02:45:48;;;;;;;5.88;2.38;;;;;;;10.03;99.24;100724.09;4926367;29;20040;-83
2022/11/08 02:48:14;;;;;;;12.43;2.50;;;;;;;10.00;99.57;100714.31;4911216;29;20027;-83
2022/11/08 02:50:39;;;;;;;5.63;2.28;;;;;;;10.01;99.52;100707.88;4912725;29;20048;-83
2022/11/08 02:53:05;;;;;;;7.00;1.90;;;;;;;10.00;98.94;100703.44;4919369;29;20040;-83
2022/11/08 02:55:33;;;;;;;8.43;2.55;;;;;;;9.96;99.08;100705.50;4904579;29;20521;-83
2022/11/08 02:57:58;;;;;;;6.35;2.53;;;;;;;9.95;99.31;100695.63;4912568;29;20123;-83
2022/11/08 03:00:24;;;;;;;6.15;2.08;;;;;;;9.98;99.11;100694.53;4929730;29;20139;-83
2022/11/08 03:02:53;;;;;;;6.15;2.10;;;;;;;10.00;99.02;100702.56;4929795;29;20428;-83
2022/11/08 03:05:19;;;;;;;8.25;2.38;;;;;;;9.99;99.20;100682.69;4926177;29;20547;-83
2022/11/08 03:07:45;;;;;;;4.20;2.40;;;;;;;9.99;99.34;100696.25;4920122;29;20047;-83
2022/11/08 03:10:11;;;;;;;6.15;2.50;;;;;;;9.97;98.75;100692.78;4930995;29;20039;-83
2022/11/08 03:12:37;;;;;;;4.07;1.70;;;;;;;9.97;99.03;100681.91;4928777;29;20126;-82
2022/11/08 03:15:06;;;;;;;6.43;2.40;;;;;;;9.98;99.15;100670.06;4929478;29;20369;-83
2022/11/08 03:17:32;;;;;;;6.80;2.22;;;;;;;9.97;98.70;100666.47;4928977;29;20126;-83
2022/11/08 03:19:58;;;;;;;3.53;1.90;;;;;;;9.89;98.13;100659.88;4910392;29;20617;-83
2022/11/08 03:22:23;;;;;;;8.43;2.13;;;;;;;9.91;98.94;100661.47;4934023;29;20404;-83
2022/11/08 03:24:48;;;;;;;7.18;2.10;;;;;;;9.87;98.65;100659.97;4910560;29;20110;-83
2022/11/08 03:27:14;;;;;;;7.30;2.13;;;;;;;9.85;98.62;100653.78;4895275;29;20029;-83
2022/11/08 03:29:40;;;;;;;8.00;2.30;;;;;;;9.79;98.47;100648.81;4918342;29;20115;-83
2022/11/08 03:32:06;;;;;;;6.05;2.28;;;;;;;9.79;98.95;100651.53;4929213;29;20046;-83
2022/11/08 03:34:31;;;;;;;13.95;2.50;;;;;;;9.76;98.59;100649.03;4926908;29;20044;-83
2022/11/08 03:36:56;;;;;;;4.88;2.15;;;;;;;9.72;98.67;100639.34;4912004;29;20467;-83
2022/11/08 03:39:22;;;;;;;6.97;2.80;;;;;;;9.69;98.69;100624.13;4945760;29;20035;-83
2022/11/08 03:41:47;;;;;;;7.72;2.47;;;;;;;9.69;98.37;100628.69;4925508;29;20039;-83
2022/11/08 03:44:13;;;;;;;9.98;2.58;;;;;;;9.68;99.30;100618.81;4912713;29;20175;-83
2022/11/08 03:46:38;;;;;;;6.05;2.67;;;;;;;9.71;99.00;100616.75;4929389;29;20174;-83
2022/11/08 03:49:03;;;;;;;7.75;2.17;;;;;;;9.67;98.46;100607.09;4919920;29;20052;-83
2022/11/08 03:51:29;;;;;;;9.68;2.45;;;;;;;9.61;98.45;100595.81;4926210;29;20147;-83
2022/11/08 03:53:54;;;;;;;6.95;2.70;;;;;;;9.63;98.55;100602.84;4940886;29;20040;-83
2022/11/08 03:56:19;;;;;;;10.88;2.53;;;;;;;9.60;98.71;100594.91;4928194;29;20127;-83
2022/11/08 03:58:45;;;;;;;7.97;2.95;;;;;;;9.58;98.60;100583.31;4930034;29;20075;-83
2022/11/08 04:01:10;;;;;;;7.55;2.80;;;;;;;9.62;98.38;100590.25;4914205;29;20047;-82
2022/11/08 04:03:36;;;;;;;11.65;3.95;;;;;;;9.60;98.35;100586.75;4910374;29;20072;-83
2022/11/08 04:06:02;;;;;;;11.27;3.00;;;;;;;9.61;98.57;100593.09;4910207;29;20032;-83
2022/11/08 04:08:28;;;;;;;6.20;2.47;;;;;;;9.58;98.29;100588.75;4907734;29;20043;-83
2022/11/08 04:15:13;;;;;;;6.63;2.55;;;;;;;9.62;98.32;100582.09;4910550;29;20064;-83
2022/11/08 04:16:31;;;;;;;7.28;2.60;;;;;;;9.63;98.16;100567.53;4910724;29;20040;-83
2022/11/08 04:21:44;;;;;;;10.60;2.47;;;;;;;9.60;97.71;100569.59;4910470;29;20511;-83
2022/11/08 04:24:10;;;;;;;5.47;2.15;;;;;;;9.57;98.04;100554.41;4926881;29;20071;-82
2022/11/08 04:26:35;;;;;;;11.00;3.45;;;;;;;9.61;97.61;100572.22;4901107;29;20094;-83
2022/11/08 04:29:04;;;;;;;7.32;2.65;;;;;;;9.60;97.05;100548.75;4910739;29;20127;-83
2022/11/08 04:31:29;;;;;;;7.47;2.75;;;;;;;9.61;97.41;100549.63;4911694;29;20521;-83
2022/11/08 04:33:55;;;;;;;6.30;2.63;;;;;;;9.64;97.09;100554.81;4894782;29;20040;-83
2022/11/08 04:36:20;;;;;;;4.88;2.33;;;;;;;9.66;96.60;100553.75;4925891;29;20500;-83
2022/11/08 04:38:49;;;;;;;5.45;2.30;;;;;;;9.61;96.67;100549.63;4907410;29;20106;-83
2022/11/08 04:41:17;;;;;;;5.95;2.47;;;;;;;9.61;96.61;100542.34;4916074;29;20036;-83
2022/11/08 04:43:43;;;;;;;8.88;3.20;;;;;;;9.61;96.28;100552.34;4913852;29;20126;-83
2022/11/08 04:46:14;;;;;;;8.63;2.35;;;;;;;9.60;95.87;100550.59;4912463;29;20062;-82
2022/11/08 04:48:40;;;;;;;7.30;2.40;;;;;;;9.59;96.00;100543.44;4909824;29;20048;-83
2022/11/08 04:51:15;;;;;;;8.80;2.60;;;;;;;9.59;95.59;100535.28;4910976;29;20119;-83
2022/11/08 04:53:40;;;;;;;6.63;2.67;;;;;;;9.59;95.29;100528.00;4924723;29;20473;-83
2022/11/08 04:56:09;;;;;;;5.13;2.03;;;;;;;9.59;95.14;100525.28;4906783;29;20039;-83
2022/11/08 04:58:36;;;;;;;10.50;3.17;;;;;;;9.55;95.00;100515.63;4910261;29;20031;-83
2022/11/08 05:01:04;;;;;;;5.28;2.55;;;;;;;9.57;94.84;100513.69;4912755;29;20098;-83
2022/11/08 05:03:30;;;;;;;6.32;2.10;;;;;;;9.56;94.31;100514.66;4930033;29;20506;-83
2022/11/08 05:06:03;;;;;;;7.65;2.40;;;;;;;9.52;94.30;100513.16;4930023;29;20036;-83
2022/11/08 05:08:28;;;;;;;;;;;;;;;9.52;94.75;100520.44;4901674;29;20103;-83
2022/11/08 05:11:02;;;;;;;3.75;2.05;;;;;;;9.48;94.58;100506.22;4927316;29;20286;-83
2022/11/08 05:13:28;;;;;;;4.93;1.80;;;;;;;9.41;94.21;100503.06;4916882;29;20043;-83
2022/11/08 05:15:53;;;;;;;5.05;1.90;;;;;;;9.43;94.11;100509.25;4919184;29;20040;-82
2022/11/08 05:18:19;;;;;;;3.65;1.98;;;;;;;9.42;94.19;100499.38;4917581;29;20047;-82
2022/11/08 05:23:28;;;;;;;8.45;2.33;;;;;;;9.40;93.93;100508.63;4918289;29;20063;-82
2022/11/08 05:25:54;;;;;;;5.25;1.75;;;;;;;9.42;93.59;100504.81;4909914;29;20083;-82
2022/11/08 05:28:20;;;;;;;7.68;2.00;;;;;;;9.44;93.36;100510.13;4897514;29;20126;-82
2022/11/08 05:30:54;;;;;;;3.35;1.70;;;;;;;9.41;93.24;100494.06;4907745;29;20447;-82
2022/11/08 05:33:19;;;;;;;7.45;2.15;;;;;;;9.38;93.25;100494.31;4925819;29;20035;-82
2022/11/08 05:35:44;;;;;;;4.57;2.17;;;;;;;9.33;93.12;100486.50;4933038;29;20036;-82
2022/11/08 05:38:10;;;;;;;6.07;1.92;;;;;;;9.36;93.00;100485.38;4915729;29;20459;-82
2022/11/08 05:40:35;;;;;;;6.50;1.95;;;;;;;9.33;92.99;100483.78;4933049;29;20151;-83
2022/11/08 05:43:01;;;;;;;7.65;2.03;;;;;;;9.36;92.76;100486.25;4912531;29;20496;-83
2022/11/08 05:45:26;;;;;;;4.93;2.13;;;;;;;9.39;92.59;100485.16;4920615;29;20028;-82
2022/11/08 05:47:52;;;;;;;4.95;1.77;;;;;;;9.37;92.37;100484.41;4912329;29;20135;-82
2022/11/08 05:50:17;;;;;;;6.00;2.03;;;;;;;9.33;92.62;100480.19;4923106;29;20051;-82
2022/11/08 05:52:42;;;;;;;4.28;2.03;;;;;;;9.35;92.32;100483.66;4914578;29;20063;-82
2022/11/08 05:55:08;;;;;;;5.88;1.85;;;;;;;9.39;92.38;100485.16;4921830;29;20040;-82
2022/11/08 05:57:33;;;;;;;7.10;2.58;;;;;;;9.38;92.14;100487.03;4931350;29;20214;-83
2022/11/08 05:59:59;;;;;;;4.45;2.10;;;;;;;9.39;92.11;100474.31;4917731;29;20119;-82
2022/11/08 06:02:24;;;;;;;3.13;1.90;;;;;;;9.30;92.19;100467.69;4912005;29;20036;-82
2022/11/08 06:04:49;;;;;;;4.88;2.17;;;;;;;9.31;92.05;100461.28;4913966;29;20048;-82
2022/11/08 06:07:15;;;;;;;9.05;2.17;;;;;;;9.36;91.82;100466.38;4929602;29;20151;-83
2022/11/08 06:09:40;;;;;;;6.70;2.42;;;;;;;9.34;91.81;100463.78;4927440;29;20040;-82
2022/11/08 06:12:06;;;;;;;6.45;2.20;;;;;;;9.37;91.86;100458.13;4911608;29;20040;-82
2022/11/08 06:14:31;;;;;;;5.05;2.25;;;;;;;9.37;91.42;100465.38;4928583;29;20476;-82
2022/11/08 06:16:57;;;;;;;6.50;2.13;;;;;;;9.34;91.69;100460.22;4930876;29;20481;-82
2022/11/08 06:19:22;;;;;;;3.70;1.73;;;;;;;9.32;91.81;100462.16;4929848;29;20119;-83
2022/11/08 06:21:48;;;;;;;8.70;2.30;;;;;;;9.30;91.89;100467.69;4928216;29;20015;-82
2022/11/08 06:24:16;;;;;;;4.82;2.25;;;;;;;9.25;92.05;100469.03;4930927;29;20042;-82
2022/11/08 06:26:42;;;;;;;7.20;2.30;;;;;;;9.24;92.05;100464.59;4915826;29;20040;-82
2022/11/08 06:29:08;;;;;;;9.55;2.35;;;;;;;9.26;91.93;100468.91;4921452;29;20177;-82
2022/11/08 06:31:34;;;;;;;4.00;2.33;;;;;;;9.22;91.74;100461.97;4912281;29;20686;-83
2022/11/08 06:34:00;;;;;;;4.85;2.30;;;;;;;9.29;91.21;100468.69;4912356;29;20044;-83
2022/11/08 06:36:25;;;;;;;4.10;2.00;;;;;;;9.26;91.49;100462.59;4924607;29;20115;-82
2022/11/08 06:38:54;;;;;;;3.83;2.08;;;;;;;9.27;91.54;100472.47;4929679;29;20118;-82
2022/11/08 06:41:21;;;;;;;8.65;2.33;;;;;;;9.28;91.37;100466.97;4913746;29;20392;-82
2022/11/08 06:43:47;;;;;;;5.03;2.20;;;;;;;9.23;91.29;100469.13;4932268;29;20046;-83
2022/11/08 06:46:13;;;;;;;13.23;2.55;;;;;;;9.29;91.00;100462.41;4911292;29;20522;-83
2022/11/08 06:48:38;;;;;;;6.30;2.63;;;;;;;9.31;91.09;100468.56;4912953;29;20067;-82
2022/11/08 06:51:03;;;;;;;4.80;2.30;;;;;;;9.30;91.15;100474.97;4924827;29;20063;-83
2022/11/08 06:53:29;;;;;;;4.05;2.30;;;;;;;9.31;90.63;100463.13;4923987;29;20285;-83
2022/11/08 06:55:54;;;;;;;4.22;2.40;;;;;;;9.28;90.76;100479.63;4915547;29;20039;-83
2022/11/08 06:58:19;;;;;;;3.97;2.05;;;;;;;9.28;90.92;100468.78;4930265;29;20043;-83
2022/11/08 07:00:45;;;;;;;5.45;2.03;;;;;;;9.27;90.59;100473.34;4927471;29;20527;-83
2022/11/08 07:03:12;;;;;;;5.13;2.38;;;;;;;9.23;91.05;100469.13;4930239;29;20345;-83
2022/11/08 07:05:37;;;;;;;4.60;2.25;;;;;;;9.21;90.66;100468.38;4926555;29;20131;-82
2022/11/08 07:08:03;;;;;;;5.80;2.33;;;;;;;9.22;90.79;100475.53;4933920;29;20131;-83
2022/11/08 07:10:31;;;;;;;7.85;2.15;;;;;;;9.26;90.54;100487.91;4918248;29;20056;-83
2022/11/08 07:13:05;;;;;;;4.60;1.88;;;;;;;9.27;90.67;100492.34;4926921;29;20405;-83
2022/11/08 07:15:32;;;;;;;4.45;2.15;;;;;;;9.28;90.20;100490.50;4919687;29;20143;-82
2022/11/08 07:18:03;;;;;;;6.70;2.50;;;;;;;9.31;90.44;100485.72;4913336;29;20612;-83
2022/11/08 07:20:29;;;;;;;7.35;3.35;;;;;;;9.33;90.33;100486.50;4916628;29;20078;-83
2022/11/08 07:22:55;;;;;;;7.93;2.58;;;;;;;9.38;89.73;100480.72;4913739;29;20039;-83
2022/11/08 07:25:21;;;;;;;5.97;2.17;;;;;;;9.41;89.61;100477.75;4926392;29;20053;-83
2022/11/08 07:27:46;;;;;;;5.45;2.13;;;;;;;9.45;89.47;100469.28;4915192;29;20043;-83
2022/11/08 07:30:12;;;;;;;5.32;2.45;;;;;;;9.44;89.78;100472.13;4945705;29;20483;-83
2022/11/08 07:32:37;;;;;;;4.75;2.00;;;;;;;9.48;89.47;100484.50;4930005;29;20464;-82
2022/11/08 07:35:03;;;;;;;5.90;2.50;;;;;;;9.49;89.24;100467.22;4930384;29;20027;-83
2022/11/08 07:37:28;;;;;;;7.75;2.60;;;;;;;9.54;89.43;100475.88;4929235;29;20028;-83
2022/11/08 07:39:54;;;;;;;4.15;2.00;;;;;;;9.54;89.05;100466.88;4929595;29;20135;-82
2022/11/08 07:42:19;;;;;;;8.43;2.50;;;;;;;9.63;88.64;100477.91;4943284;29;20044;-82
2022/11/08 07:44:57;;;;;;;4.95;2.03;;;;;;;9.62;88.76;100459.88;4915486;29;20032;-83
2022/11/08 07:47:23;;;;;;;5.57;1.90;;;;;;;9.68;88.76;100466.72;4913448;29;20046;-83
2022/11/08 07:49:48;;;;;;;3.38;1.90;;;;;;;9.70;88.84;100462.91;4913853;29;20063;-83
2022/11/08 07:52:13;;;;;;;5.60;2.28;;;;;;;9.74;87.92;100463.53;4927099;29;20044;-83
2022/11/08 07:54:39;;;;;;;3.85;2.00;;;;;;;9.80;87.31;100454.94;4898653;29;20043;-83
2022/11/08 07:57:04;;;;;;;6.32;2.00;;;;;;;9.86;88.45;100446.31;4914165;29;20495;-83
2022/11/08 07:59:30;;;;;;;3.90;1.80;;;;;;;9.92;87.18;100459.41;4930123;29;20019;-83
2022/11/08 08:01:55;;;;;;;5.88;2.30;;;;;;;9.97;87.68;100462.66;4929437;29;20036;-83
2022/11/08 08:04:20;;;;;;;4.20;1.80;;;;;;;10.02;87.05;100450.56;4929698;29;20122;-83
2022/11/08 08:06:46;;;;;;;6.70;1.80;;;;;;;10.10;86.22;100459.00;4944866;28;20047;-83
2022/11/08 08:09:11;;;;;;;5.32;2.20;;;;;;;10.14;87.12;100457.78;4930166;29;20058;-82
2022/11/08 08:11:36;;;;;;;4.95;1.90;;;;;;;10.21;86.42;100462.66;4912838;29;20071;-83
2022/11/08 08:14:02;;;;;;;5.60;1.70;;;;;;;10.31;85.89;100465.56;4929783;29;20036;-83
2022/11/08 08:16:27;;;;;;;6.13;2.47;;;;;;;10.41;84.04;100466.56;4928319;29;20484;-83
2022/11/08 08:18:52;;;;;;;13.35;2.28;;;;;;;10.51;84.14;100464.00;4929279;29;20067;-83
2022/11/08 08:21:18;;;;;;;2.15;1.67;;;;;;;10.60;84.69;100465.13;4927956;29;20035;-82
2022/11/08 08:23:43;;;;;;;3.63;1.77;;;;;;;10.70;83.67;100483.31;4926156;29;20114;-82
2022/11/08 08:26:08;;;;;;;5.90;1.95;;;;;;;10.76;83.16;100468.34;4926584;29;20727;-83
2022/11/08 08:28:34;;;;;;;3.55;1.77;;;;;;;10.88;83.15;100481.00;4910857;29;20031;-83
2022/11/08 08:30:59;;;;;;;3.22;1.52;;;;;;;10.95;81.59;100474.06;4910287;29;20043;-82
2022/11/08 08:33:25;;;;;;;3.05;1.50;;;;;;;11.00;82.74;100479.13;4911913;29;20044;-82
2022/11/08 08:35:52;;;;;;;3.38;1.23;;;;;;;11.10;81.30;100492.91;4911520;29;20051;-83
2022/11/08 08:38:17;;;;;;;2.22;1.52;;;;;;;11.17;81.48;100494.13;4928079;29;20354;-83
2022/11/08 08:40:43;;;;;;;3.67;1.80;;;;;;;11.23;80.87;100499.06;4913014;29;20038;-83
2022/11/08 08:43:08;;;;;;;6.57;2.00;;;;;;;11.31;79.64;100488.41;4914250;29;20059;-83
2022/11/08 08:45:35;;;;;;;3.08;1.40;;;;;;;11.43;79.92;100482.00;4917162;29;20039;-83
2022/11/08 08:48:01;;;;;;;4.63;1.60;;;;;;;11.54;80.01;100480.22;4932876;29;20046;-82
2022/11/08 08:50:28;;;;;;;3.83;1.50;;;;;;;11.60;80.04;100477.00;4934065;29;20528;-82
2022/11/08 08:53:03;;;;;;;2.90;1.55;;;;;;;11.66;78.80;100471.91;4923867;29;20480;-83
2022/11/08 08:55:28;;;;;;;4.55;1.55;;;;;;;11.75;78.57;100473.88;4923364;29;20568;-83
2022/11/08 08:57:54;;;;;;;5.22;1.85;;;;;;;11.80;77.55;100473.50;4916158;29;20028;-83
2022/11/08 09:00:21;;;;;;;5.80;1.65;;;;;;;11.87;78.53;100466.56;4929184;29;20483;-83
2022/11/08 09:02:46;;;;;;;6.30;1.73;;;;;;;11.94;78.22;100456.00;4897473;29;20043;-83
2022/11/08 09:05:12;;;;;;;7.85;1.80;;;;;;;11.99;77.99;100459.22;4919468;29;20039;-82
2022/11/08 09:07:38;;;;;;;6.05;1.90;;;;;;;12.00;78.02;100456.34;4928735;29;20048;-83
2022/11/08 09:10:05;;;;;;;3.28;1.65;;;;;;;12.10;77.01;100442.78;4919997;29;20044;-83
2022/11/08 09:12:31;;;;;;;2.30;1.48;;;;;;;12.16;76.71;100444.13;4933844;29;20039;-83
2022/11/08 09:14:56;;;;;;;6.18;1.85;;;;;;;12.22;77.52;100439.03;4944724;29;20039;-82
2022/11/08 09:17:23;;;;;;;5.45;1.42;;;;;;;12.29;77.23;100449.41;4915066;29;20352;-82
2022/11/08 09:19:48;;;;;;;5.05;1.60;;;;;;;12.32;77.35;100460.06;4929042;29;20075;-83
2022/11/08 09:22:13;;;;;;;3.83;1.73;;;;;;;12.36;76.25;100467.84;4931783;29;20074;-83
2022/11/08 09:24:39;;;;;;;2.03;1.35;;;;;;;12.45;75.92;100450.69;4933107;29;20625;-82
2022/11/08 09:27:04;;;;;;;3.80;1.70;;;;;;;12.52;75.84;100440.94;4906884;29;20051;-83
2022/11/08 09:29:30;;;;;;;3.88;1.77;;;;;;;12.58;75.04;100445.00;4898560;29;20046;-82
2022/11/08 09:31:56;;;;;;;4.13;1.77;;;;;;;12.64;75.78;100439.03;4912432;29;20043;-83
2022/11/08 09:34:22;;;;;;;5.72;1.60;;;;;;;12.66;74.88;100450.66;4913608;29;20484;-82
2022/11/08 09:36:48;;;;;;;3.50;1.40;;;;;;;12.67;75.01;100440.59;4912322;29;20039;-82
2022/11/08 09:39:14;;;;;;;3.30;1.63;;;;;;;12.70;73.91;100449.41;4911983;29;20036;-82
2022/11/08 09:42:21;;;;;;;2.80;1.58;;;;;;;12.77;75.62;100452.44;4911982;29;20032;-83
2022/11/08 09:45:22;;;;;;;5.97;1.65;;;;;;;12.86;76.05;100440.72;4908090;29;20054;-83
2022/11/08 09:47:54;;;;;;;3.70;1.60;;;;;;;12.94;74.38;100440.91;4912426;29;20087;-82
2022/11/08 09:50:32;;;;;;;3.67;1.52;;;;;;;13.07;76.66;100440.69;4933131;29;20032;-83
2022/11/08 09:53:10;;;;;;;5.00;1.75;;;;;;;13.17;74.79;100457.97;4923308;29;20044;-83
2022/11/08 09:55:40;;;;;;;4.78;1.75;;;;;;;13.26;73.85;100462.63;4913082;29;20484;-82
2022/11/08 09:58:32;;;;;;;3.03;1.58;;;;;;;13.35;75.28;100469.16;4913460;29;20146;-82
2022/11/08 10:00:58;;;;;;;4.82;1.95;;;;;;;13.36;73.93;100457.22;4939732;29;20509;-83
2022/11/08 10:03:24;;;;;;;2.53;1.50;;;;;;;13.37;71.89;100452.59;4913406;29;20036;-83
2022/11/08 10:06:05;;;;;;;8.25;2.10;;;;;;;13.44;74.55;100457.38;4929966;29;20122;-83
2022/11/08 10:08:48;;;;;;;3.35;1.70;;;;;;;13.54;73.10;100454.69;4920267;29;20044;-83
2022/11/08 10:11:17;;;;;;;2.90;1.55;;;;;;;13.63;70.93;100455.72;4925979;29;20074;-83
2022/11/08 10:13:59;;;;;;;3.33;1.50;;;;;;;13.72;73.45;100468.53;4914326;29;20104;-83
2022/11/08 10:16:52;;;;;;;3.53;1.83;;;;;;;13.77;71.96;100463.50;4915290;29;20035;-83
2022/11/08 10:19:52;;;;;;;4.35;1.65;;;;;;;13.87;72.23;100466.25;4939970;29;20036;-82
2022/11/08 10:22:26;;;;;;;4.90;1.58;;;;;;;13.99;72.28;100476.94;4903142;29;20568;-83
2022/11/08 10:25:02;;;;;;;7.30;1.73;;;;;;;14.08;70.71;100486.13;4930815;29;20574;-83
2022/11/08 10:27:41;;;;;;;3.63;1.40;;;;;;;14.12;70.31;100481.25;4926484;29;20050;-83
2022/11/08 10:30:23;;;;;;;2.33;1.40;;;;;;;14.15;71.15;100479.09;4920212;29;20440;-83
2022/11/08 10:32:53;;;;;;;4.93;1.67;;;;;;;14.15;69.75;100475.50;4929962;29;20031;-83
2022/11/08 10:35:34;;;;;;;2.55;1.50;;;;;;;14.18;70.50;100492.50;4930564;29;20031;-83
2022/11/08 10:38:03;;;;;;;2.85;1.70;;;;;;;14.16;68.88;100478.09;4922298;29;20175;-83
2022/11/08 10:40:49;;;;;;;3.80;1.30;;;;;;;14.16;71.14;100478.09;4901967;29;20044;-83
2022/11/08 10:43:18;;;;;;;6.97;1.60;;;;;;;14.14;69.51;100482.84;4927834;29;20055;-83
2022/11/08 10:45:43;;;;;;;2.45;1.50;;;;;;;14.14;68.99;100482.84;4928150;29;20381;-83
2022/11/08 10:48:10;;;;;;;6.70;1.65;;;;;;;14.19;70.76;100487.88;4895384;29;20048;-83
2022/11/08 10:50:42;;;;;;;2.30;1.45;;;;;;;14.21;70.09;100481.25;4930594;29;20134;-82
2022/11/08 10:53:16;;;;;;;2.95;1.45;;;;;;;14.25;70.96;100485.44;4910544;29;20646;-82
2022/11/08 10:55:50;;;;;;;2.95;1.83;;;;;;;14.30;69.01;100488.59;4922247;29;20031;-83
2022/11/08 10:58:37;;;;;;;4.28;1.63;;;;;;;14.38;69.36;100473.34;4927140;29;20051;-82
2022/11/08 11:01:18;;;;;;;2.28;1.70;;;;;;;14.43;70.18;100471.03;4896756;29;20036;-83
2022/11/08 11:03:45;;;;;;;6.63;1.92;;;;;;;14.48;67.36;100469.59;4912971;29;20039;-83
2022/11/08 11:06:26;;;;;;;9.13;1.70;;;;;;;14.50;67.66;100473.09;4928583;29;20066;-83
2022/11/08 11:08:57;;;;;;;6.30;1.70;;;;;;;14.46;68.83;100462.53;4916468;29;20043;-83
2022/11/08 11:11:22;;;;;;;2.72;1.80;;;;;;;14.49;68.82;100454.03;4913659;29;20027;-84
2022/11/08 11:14:14;;;;;;;3.40;1.60;;;;;;;14.45;68.77;100447.97;4913154;29;20036;-83
2022/11/08 11:16:58;;;;;;;3.80;1.85;;;;;;;14.45;68.79;100439.75;4926749;29;20127;-83
2022/11/08 11:19:25;;;;;;;8.40;1.98;;;;;;;14.43;68.39;100440.91;4927376;29;20429;-83
2022/11/08 11:22:00;;;;;;;3.47;1.60;;;;;;;14.45;68.86;100452.56;4926460;29;20041;-82
2022/11/08 11:24:26;;;;;;;1.98;1.63;;;;;;;14.44;69.44;100454.44;4929628;29;20398;-83
2022/11/08 11:27:06;;;;;;;6.95;2.00;;;;;;;14.46;68.55;100433.28;4901695;29;20051;-82
2022/11/08 11:29:36;;;;;;;5.13;1.73;;;;;;;14.48;68.05;100425.81;4943263;29;20359;-82
2022/11/08 11:32:22;;;;;;;2.60;1.50;;;;;;;14.57;69.59;100415.00;4916909;29;20079;-83
2022/11/08 11:34:52;;;;;;;4.60;2.05;;;;;;;14.60;67.84;100418.31;4942092;29;20043;-83
2022/11/08 11:37:24;;;;;;;6.28;1.50;;;;;;;14.68;68.10;100432.09;4910784;29;20035;-83
2022/11/08 11:40:12;;;;;;;5.18;1.48;;;;;;;14.79;67.91;100425.63;4929566;29;20115;-83
2022/11/08 11:42:46;;;;;;;4.75;1.25;;;;;;;14.84;67.60;100425.16;4944343;29;20140;-82
2022/11/08 11:45:30;;;;;;;6.43;1.50;;;;;;;14.96;67.62;100418.47;4925552;29;20139;-83
2022/11/08 11:48:09;;;;;;;6.25;1.50;;;;;;;15.05;67.30;100412.94;4910824;29;20048;-83
2022/11/08 11:50:37;;;;;;;5.07;1.58;;;;;;;15.07;67.34;100407.34;4912054;29;20048;-82
2022/11/08 11:53:10;;;;;;;3.95;1.50;;;;;;;15.07;66.58;100401.00;4918698;29;20078;-82